Buoy 46533

sailwx.info

Track history (hours):
 
Tides and Currents Weather Stations Pressure Air Temp Water Temp Dewpoint Dewpoint Depression Visibility Wind Speed Wind Dir Waves Ship Positions

Drifting buoy 46533

Last reported at 2015-Jul-30 01:00 UTC. Time now 2015-Jul-30 06:11 UTC.
Position N 50°35' W 138°44'.

Water temperature 14.8 ° C

Date/timePositionNaut miles runAvg speedWind from/ knotsBaromVisibWave heightAir tempDewpointWater temp
2015-Jul-30 01:00N 50°35' W 138°44'0 0.0 14.8
2015-Jul-30 00:00N 50°35' W 138°44'2 0.5 14.8
2015-Jul-29 21:00N 50°36' W 138°43'2 1.6 14.8
2015-Jul-29 20:00N 50°37' W 138°46'1 0.5 14.8
2015-Jul-29 17:00N 50°36' W 138°48'0 0.4 14.8
2015-Jul-29 16:00N 50°35' W 138°48'2 0.8 14.8
2015-Jul-29 14:00N 50°34' W 138°47'1 0.3 14.8
2015-Jul-29 12:00N 50°33' W 138°47'2 1.2 14.7
2015-Jul-29 10:00N 50°36' W 138°45'1 0.2 14.8
2015-Jul-29 07:00N 50°36' W 138°46'1 0.2 14.8
2015-Jul-29 03:00N 50°35' W 138°48'1 1.2 14.9
2015-Jul-29 02:00N 50°34' W 138°49'1 0.3 14.9
2015-Jul-28 22:00N 50°33' W 138°48'1 0.4 14.8
2015-Jul-28 18:00N 50°35' W 138°47'0 0.2 14.7
2015-Jul-28 16:00N 50°35' W 138°47'0 0.3 14.7
2015-Jul-28 15:00N 50°35' W 138°48'0 0.5 14.7
2015-Jul-28 14:00N 50°34' W 138°48'1 0.4 14.7
2015-Jul-28 12:00N 50°34' W 138°50'0 0.0 14.7
2015-Jul-28 11:00N 50°34' W 138°50'0 0.1 14.7
2015-Jul-28 03:00N 50°34' W 138°49'1 0.1 14.7
2015-Jul-27 20:00N 50°35' W 138°50'2 0.6 14.7
2015-Jul-27 16:00N 50°35' W 138°53'0 0.1 14.7
2015-Jul-27 14:00N 50°35' W 138°53'1 0.5 14.7
2015-Jul-27 12:00N 50°34' W 138°54'1 0.1 14.7
2015-Jul-27 05:00N 50°35' W 138°54'2 0.6 14.7
2015-Jul-27 02:00N 50°34' W 138°57'1 0.5 14.7
2015-Jul-27 00:00N 50°33' W 138°57'0 0.0 14.7
2015-Jul-26 23:00N 50°33' W 138°57'0 0.0 14.7
2015-Jul-26 22:00N 50°33' W 138°57'0 0.2 14.7
2015-Jul-26 21:00N 50°33' W 138°57'1 0.3 14.7
2015-Jul-26 18:00N 50°34' W 138°56'1 0.7 14.7
2015-Jul-26 16:00N 50°35' W 138°57'0 0.2 14.7
2015-Jul-26 15:00N 50°35' W 138°57'1 0.6 14.7
2015-Jul-26 14:00N 50°35' W 138°58'1 0.7 14.7
2015-Jul-26 13:00N 50°35' W 138°59'1 0.7 14.8
2015-Jul-26 12:00N 50°35' W 139°00'2 1.2 14.8
2015-Jul-26 10:00N 50°33' W 138°59'0 0.0 14.8
2015-Jul-26 07:00N 50°33' W 138°59'1 0.9 14.9
2015-Jul-26 06:00N 50°33' W 138°58'1 0.7 14.9
2015-Jul-26 05:00N 50°33' W 138°59'0 0.3 15.0
2015-Jul-26 04:00N 50°33' W 138°58'0 0.0 15.0
2015-Jul-26 03:00N 50°33' W 138°58'1 0.7 15.1
2015-Jul-26 02:00N 50°34' W 138°58'1 1.0 15.2
2015-Jul-26 01:00N 50°33' W 138°59'1 0.7 15.2
2015-Jul-26 00:00N 50°34' W 139°00'1 1.0 15.3
2015-Jul-25 23:00N 50°33' W 139°01'0 0.0 15.2
2015-Jul-25 22:00N 50°33' W 139°01'2 0.3 15.0
2015-Jul-25 17:00N 50°31' W 139°01'0 0.1 14.6
2015-Jul-25 15:00N 50°32' W 139°01'0 0.4 14.6
2015-Jul-25 14:00N 50°31' W 139°01'0 0.1 14.6
2015-Jul-25 11:00N 50°31' W 139°01'0 0.0 14.6
2015-Jul-25 06:00N 50°31' W 139°01'1 0.7 14.7
2015-Jul-25 05:00N 50°31' W 139°02'1 0.6 14.6
2015-Jul-25 04:00N 50°31' W 139°03'0 0.2 14.7
2015-Jul-25 03:00N 50°31' W 139°03'1 0.6 14.7
2015-Jul-25 01:00N 50°31' W 139°04'2 0.4 14.7
2015-Jul-24 21:00N 50°29' W 139°04'2 0.1 14.7
2015-Jul-23 18:00N 50°31' W 139°06'0 0.0 14.7
2015-Jul-23 17:00N 50°31' W 139°06'0 0.0 14.7
2015-Jul-23 16:00N 50°31' W 139°06'1 0.7 14.7
2015-Jul-23 15:00N 50°32' W 139°06'0 0.2 14.7
2015-Jul-23 14:00N 50°32' W 139°06'0 0.3 14.7
2015-Jul-23 13:00N 50°31' W 139°06'0 0.1 14.7
2015-Jul-23 06:00N 50°31' W 139°06'1 0.8 14.7
2015-Jul-23 05:00N 50°32' W 139°05'1 0.7 14.8
2015-Jul-23 04:00N 50°32' W 139°06'0 0.4 14.8
2015-Jul-23 03:00N 50°32' W 139°06'2 0.4 14.8
2015-Jul-22 23:00N 50°31' W 139°08'1 0.9 14.7
2015-Jul-22 22:00N 50°30' W 139°09'1 0.3 14.7
2015-Jul-22 20:00N 50°30' W 139°08'2 0.3 14.7
2015-Jul-22 14:00N 50°32' W 139°06'1 1.0 14.7
2015-Jul-22 13:00N 50°32' W 139°08'0 0.0 14.7
2015-Jul-22 01:00N 50°32' W 139°08'1 0.5 14.8
2015-Jul-22 00:00N 50°32' W 139°08'1 1.0 14.8
2015-Jul-21 23:00N 50°31' W 139°10'1 0.3 14.8
2015-Jul-21 18:00N 50°30' W 139°11'1 0.2 14.7
2015-Jul-21 14:00N 50°30' W 139°09'1 0.1 14.7
2015-Jul-21 05:00N 50°30' W 139°10'1 0.1 14.7
2015-Jul-21 00:00N 50°30' W 139°11'0 0.4 14.7
2015-Jul-20 23:00N 50°29' W 139°11'0 0.5 14.7
2015-Jul-20 22:00N 50°29' W 139°11'1 0.3 14.7
2015-Jul-20 20:00N 50°29' W 139°10'0 0.4 14.7
2015-Jul-20 19:00N 50°29' W 139°10'1 0.5 14.7
2015-Jul-20 17:00N 50°30' W 139°09'1 1.1 14.7
2015-Jul-20 16:00N 50°30' W 139°10'1 0.6 14.7
2015-Jul-20 15:00N 50°31' W 139°11'0 0.2 14.8
2015-Jul-20 14:00N 50°31' W 139°11'1 0.5 14.8
2015-Jul-20 12:00N 50°30' W 139°12'3 3.2 14.8
2015-Jul-20 11:00N 50°28' W 139°09'1 0.3 14.8
2015-Jul-20 06:00N 50°29' W 139°08'3 0.7 14.9
2015-Jul-20 02:00N 50°32' W 139°08'   15.1
Track history (hours):
 
Tides and Currents Weather Stations Pressure Air Temp Water Temp Dewpoint Dewpoint Depression Visibility Wind Speed Wind Dir Waves Ship Positions

Drifting buoy 46533

Last reported at 2015-Jul-30 01:00 UTC. Time now 2015-Jul-30 06:11 UTC.
Position N 50°35' W 138°44'.

Water temperature 14.8 ° C

Date/timePositionNaut miles runAvg speedWind from/ knotsBaromVisibWave heightAir tempDewpointWater temp
2015-Jul-30 01:00N 50°35' W 138°44'0 0.0 14.8
2015-Jul-30 00:00N 50°35' W 138°44'2 0.5 14.8
2015-Jul-29 21:00N 50°36' W 138°43'2 1.6 14.8
2015-Jul-29 20:00N 50°37' W 138°46'1 0.5 14.8
2015-Jul-29 17:00N 50°36' W 138°48'0 0.4 14.8
2015-Jul-29 16:00N 50°35' W 138°48'2 0.8 14.8
2015-Jul-29 14:00N 50°34' W 138°47'1 0.3 14.8
2015-Jul-29 12:00N 50°33' W 138°47'2 1.2 14.7
2015-Jul-29 10:00N 50°36' W 138°45'1 0.2 14.8
2015-Jul-29 07:00N 50°36' W 138°46'1 0.2 14.8
2015-Jul-29 03:00N 50°35' W 138°48'1 1.2 14.9
2015-Jul-29 02:00N 50°34' W 138°49'1 0.3 14.9
2015-Jul-28 22:00N 50°33' W 138°48'1 0.4 14.8
2015-Jul-28 18:00N 50°35' W 138°47'0 0.2 14.7
2015-Jul-28 16:00N 50°35' W 138°47'0 0.3 14.7
2015-Jul-28 15:00N 50°35' W 138°48'0 0.5 14.7
2015-Jul-28 14:00N 50°34' W 138°48'1 0.4 14.7
2015-Jul-28 12:00N 50°34' W 138°50'0 0.0 14.7
2015-Jul-28 11:00N 50°34' W 138°50'0 0.1 14.7
2015-Jul-28 03:00N 50°34' W 138°49'1 0.1 14.7
2015-Jul-27 20:00N 50°35' W 138°50'2 0.6 14.7
2015-Jul-27 16:00N 50°35' W 138°53'0 0.1 14.7
2015-Jul-27 14:00N 50°35' W 138°53'1 0.5 14.7
2015-Jul-27 12:00N 50°34' W 138°54'1 0.1 14.7
2015-Jul-27 05:00N 50°35' W 138°54'2 0.6 14.7
2015-Jul-27 02:00N 50°34' W 138°57'1 0.5 14.7
2015-Jul-27 00:00N 50°33' W 138°57'0 0.0 14.7
2015-Jul-26 23:00N 50°33' W 138°57'0 0.0 14.7
2015-Jul-26 22:00N 50°33' W 138°57'0 0.2 14.7
2015-Jul-26 21:00N 50°33' W 138°57'1 0.3 14.7
2015-Jul-26 18:00N 50°34' W 138°56'1 0.7 14.7
2015-Jul-26 16:00N 50°35' W 138°57'0 0.2 14.7
2015-Jul-26 15:00N 50°35' W 138°57'1 0.6 14.7
2015-Jul-26 14:00N 50°35' W 138°58'1 0.7 14.7
2015-Jul-26 13:00N 50°35' W 138°59'1 0.7 14.8
2015-Jul-26 12:00N 50°35' W 139°00'2 1.2 14.8
2015-Jul-26 10:00N 50°33' W 138°59'0 0.0 14.8
2015-Jul-26 07:00N 50°33' W 138°59'1 0.9 14.9
2015-Jul-26 06:00N 50°33' W 138°58'1 0.7 14.9
2015-Jul-26 05:00N 50°33' W 138°59'0 0.3 15.0
2015-Jul-26 04:00N 50°33' W 138°58'0 0.0 15.0
2015-Jul-26 03:00N 50°33' W 138°58'1 0.7 15.1
2015-Jul-26 02:00N 50°34' W 138°58'1 1.0 15.2
2015-Jul-26 01:00N 50°33' W 138°59'1 0.7 15.2
2015-Jul-26 00:00N 50°34' W 139°00'1 1.0 15.3
2015-Jul-25 23:00N 50°33' W 139°01'0 0.0 15.2
2015-Jul-25 22:00N 50°33' W 139°01'2 0.3 15.0
2015-Jul-25 17:00N 50°31' W 139°01'0 0.1 14.6
2015-Jul-25 15:00N 50°32' W 139°01'0 0.4 14.6
2015-Jul-25 14:00N 50°31' W 139°01'0 0.1 14.6
2015-Jul-25 11:00N 50°31' W 139°01'0 0.0 14.6
2015-Jul-25 06:00N 50°31' W 139°01'1 0.7 14.7
2015-Jul-25 05:00N 50°31' W 139°02'1 0.6 14.6
2015-Jul-25 04:00N 50°31' W 139°03'0 0.2 14.7
2015-Jul-25 03:00N 50°31' W 139°03'1 0.6 14.7
2015-Jul-25 01:00N 50°31' W 139°04'2 0.4 14.7
2015-Jul-24 21:00N 50°29' W 139°04'2 0.1 14.7
2015-Jul-23 18:00N 50°31' W 139°06'0 0.0 14.7
2015-Jul-23 17:00N 50°31' W 139°06'0 0.0 14.7
2015-Jul-23 16:00N 50°31' W 139°06'1 0.7 14.7
2015-Jul-23 15:00N 50°32' W 139°06'0 0.2 14.7
2015-Jul-23 14:00N 50°32' W 139°06'0 0.3 14.7
2015-Jul-23 13:00N 50°31' W 139°06'0 0.1 14.7
2015-Jul-23 06:00N 50°31' W 139°06'1 0.8 14.7
2015-Jul-23 05:00N 50°32' W 139°05'1 0.7 14.8
2015-Jul-23 04:00N 50°32' W 139°06'0 0.4 14.8
2015-Jul-23 03:00N 50°32' W 139°06'2 0.4 14.8
2015-Jul-22 23:00N 50°31' W 139°08'1 0.9 14.7
2015-Jul-22 22:00N 50°30' W 139°09'1 0.3 14.7
2015-Jul-22 20:00N 50°30' W 139°08'2 0.3 14.7
2015-Jul-22 14:00N 50°32' W 139°06'1 1.0 14.7
2015-Jul-22 13:00N 50°32' W 139°08'0 0.0 14.7
2015-Jul-22 01:00N 50°32' W 139°08'1 0.5 14.8
2015-Jul-22 00:00N 50°32' W 139°08'1 1.0 14.8
2015-Jul-21 23:00N 50°31' W 139°10'1 0.3 14.8
2015-Jul-21 18:00N 50°30' W 139°11'1 0.2 14.7
2015-Jul-21 14:00N 50°30' W 139°09'1 0.1 14.7
2015-Jul-21 05:00N 50°30' W 139°10'1 0.1 14.7
2015-Jul-21 00:00N 50°30' W 139°11'0 0.4 14.7
2015-Jul-20 23:00N 50°29' W 139°11'0 0.5 14.7
2015-Jul-20 22:00N 50°29' W 139°11'1 0.3 14.7
2015-Jul-20 20:00N 50°29' W 139°10'0 0.4 14.7
2015-Jul-20 19:00N 50°29' W 139°10'1 0.5 14.7
2015-Jul-20 17:00N 50°30' W 139°09'1 1.1 14.7
2015-Jul-20 16:00N 50°30' W 139°10'1 0.6 14.7
2015-Jul-20 15:00N 50°31' W 139°11'0 0.2 14.8
2015-Jul-20 14:00N 50°31' W 139°11'1 0.5 14.8
2015-Jul-20 12:00N 50°30' W 139°12'3 3.2 14.8
2015-Jul-20 11:00N 50°28' W 139°09'1 0.3 14.8
2015-Jul-20 06:00N 50°29' W 139°08'3 0.7 14.9
2015-Jul-20 02:00N 50°32' W 139°08'   15.1

Dump ship's entire track history